Lanzarote, Spain
Current Conditions -  °F | °C
As of 6:00 PM on Sunday 25 Jan 2015 (Local Time) from GCRR Reporting Station
Few Clouds Few Clouds  
Wind Chill: 63°   Ceiling: Unl
Heat Index: 63°   Visibility: 6mi
Dew Point: 54°   Wind: 20mph
Humidity: 72%   Direction: 40°NE
Pressure: 30.18"   Gusts: NA
Location:  28.95°N, 13.6°W
Report Text: GCRR 251800Z 04017KT 9999 FEW030 17/12 Q1022
Loading
Personal Weather Stations






























Interactive Weather Map New forecast layout! Learn more

10-Day Weather Forecast

Advertisements
Track Severe Weather on mobile